Time;durP1;ratioP1;P1;durP2;ratioP2;P2;SDS_P1;SDS_P2;PMS_P1;PMS_P2;Temp;Humidity;BMP_temperature;BMP_pressure;BME280_temperature;BME280_humidity;BME280_pressure;Samples;Min_cycle;Max_cycle;Signal;HPM_P1;HPM_P2
2021/06/18 00:00:53;;;;;;;14.45;12.00;;;;;;;;;;1496873;39;20077;-57
2021/06/18 00:01:54;;;;;;;14.18;11.38;;;;;;;;;;1496973;39;20027;-57
2021/06/18 00:02:56;;;;;;;13.15;10.77;;;;;;;;;;1497049;39;20048;-58
2021/06/18 00:03:57;;;;;;;13.40;11.32;;;;;;;;;;1496982;39;20108;-58
2021/06/18 00:04:59;;;;;;;12.88;11.57;;;;;;;;;;1497124;39;20099;-58
2021/06/18 00:06:01;;;;;;;14.20;11.50;;;;;;;;;;1496907;39;20031;-58
2021/06/18 00:07:03;;;;;;;14.85;11.70;;;;;;;;;;1496785;39;20071;-57
2021/06/18 00:08:05;;;;;;;15.52;11.45;;;;;;;;;;1496816;39;20375;-57
2021/06/18 00:09:07;;;;;;;15.27;11.90;;;;;;;;;;1496788;39;20035;-57
2021/06/18 00:10:10;;;;;;;14.25;11.82;;;;;;;;;;1497060;39;20050;-57
2021/06/18 00:11:12;;;;;;;14.35;12.57;;;;;;;;;;1497574;39;20112;-57
2021/06/18 00:12:13;;;;;;;13.45;11.90;;;;;;;;;;1497397;39;20371;-57
2021/06/18 00:13:16;;;;;;;15.70;12.07;;;;;;;;;;1497761;39;20031;-58
2021/06/18 00:14:17;;;;;;;17.83;11.90;;;;;;;;;;1497359;39;20375;-57
2021/06/18 00:15:19;;;;;;;16.70;12.18;;;;;;;;;;1497648;39;20031;-57
2021/06/18 00:16:20;;;;;;;16.75;11.85;;;;;;;;;;1497401;39;20398;-57
2021/06/18 00:17:22;;;;;;;16.02;11.43;;;;;;;;;;1497771;39;20038;-57
2021/06/18 00:18:22;;;;;;;13.65;11.02;;;;;;;;;;1497360;39;20028;-57
2021/06/18 00:19:24;;;;;;;14.63;11.52;;;;;;;;;;1497441;39;20028;-58
2021/06/18 00:20:25;;;;;;;13.10;10.85;;;;;;;;;;1497485;39;20400;-58
2021/06/18 00:21:27;;;;;;;13.32;11.43;;;;;;;;;;1497475;39;20028;-57
2021/06/18 00:22:28;;;;;;;14.18;11.07;;;;;;;;;;1497472;39;20035;-58
2021/06/18 00:23:29;;;;;;;12.90;10.80;;;;;;;;;;1497636;39;20024;-57
2021/06/18 00:24:30;;;;;;;15.10;11.25;;;;;;;;;;1497587;39;20030;-57
2021/06/18 00:25:33;;;;;;;13.10;11.40;;;;;;;;;;1497550;39;20038;-57
2021/06/18 00:26:33;;;;;;;14.32;11.10;;;;;;;;;;1497646;39;20099;-57
2021/06/18 00:27:35;;;;;;;12.82;10.70;;;;;;;;;;1497714;39;20295;-57
2021/06/18 00:28:38;;;;;;;14.63;11.57;;;;;;;;;;1497369;39;20031;-57
2021/06/18 00:29:45;;;;;;;14.35;10.98;;;;;;;;;;1497547;39;20039;-57
2021/06/18 00:30:46;;;;;;;16.45;11.52;;;;;;;;;;1497604;39;20056;-57
2021/06/18 00:31:48;;;;;;;15.23;11.07;;;;;;;;;;1497504;39;20035;-57
2021/06/18 00:32:49;;;;;;;13.05;11.68;;;;;;;;;;1497661;39;20026;-57
2021/06/18 00:33:51;;;;;;;14.18;11.23;;;;;;;;;;1497644;39;20034;-57
2021/06/18 00:34:52;;;;;;;13.73;11.35;;;;;;;;;;1497624;39;20031;-57
2021/06/18 00:35:54;;;;;;;14.00;10.63;;;;;;;;;;1497408;39;20059;-57
2021/06/18 00:36:55;;;;;;;15.02;11.15;;;;;;;;;;1497332;39;20379;-57
2021/06/18 00:37:56;;;;;;;12.35;11.07;;;;;;;;;;1497559;39;20031;-57
2021/06/18 00:38:57;;;;;;;15.95;10.88;;;;;;;;;;1497490;39;20023;-57
2021/06/18 00:39:59;;;;;;;15.60;12.10;;;;;;;;;;1497609;39;20028;-57
2021/06/18 00:41:00;;;;;;;15.18;11.20;;;;;;;;;;1497393;39;20024;-57
2021/06/18 00:42:02;;;;;;;15.75;11.38;;;;;;;;;;1497317;39;20112;-57
2021/06/18 00:43:04;;;;;;;13.75;11.60;;;;;;;;;;1497511;39;20027;-57
2021/06/18 00:44:06;;;;;;;14.73;12.15;;;;;;;;;;1497487;39;20124;-58
2021/06/18 00:45:09;;;;;;;14.10;11.82;;;;;;;;;;1497519;39;20031;-57
2021/06/18 00:46:12;;;;;;;15.55;12.00;;;;;;;;;;1497508;39;20023;-58
2021/06/18 00:47:16;;;;;;;16.67;12.63;;;;;;;;;;1497492;39;20023;-58
2021/06/18 00:48:20;;;;;;;14.80;11.68;;;;;;;;;;1497493;39;20038;-58
2021/06/18 00:49:23;;;;;;;15.80;12.50;;;;;;;;;;1497525;39;20068;-58
2021/06/18 00:50:24;;;;;;;13.90;12.35;;;;;;;;;;1497493;39;20023;-57
2021/06/18 00:51:26;;;;;;;15.95;12.18;;;;;;;;;;1497380;39;20306;-57
2021/06/18 00:52:27;;;;;;;13.85;12.05;;;;;;;;;;1497299;39;20299;-57
2021/06/18 00:53:30;;;;;;;14.13;12.10;;;;;;;;;;1497362;39;20031;-57
2021/06/18 00:54:31;;;;;;;15.05;12.20;;;;;;;;;;1497339;39;20516;-58
2021/06/18 00:55:33;;;;;;;15.27;12.77;;;;;;;;;;1497326;39;20032;-57
2021/06/18 00:56:34;;;;;;;15.25;12.05;;;;;;;;;;1497560;39;20027;-57
2021/06/18 00:57:37;;;;;;;18.02;12.75;;;;;;;;;;1497438;39;20028;-59
2021/06/18 00:58:37;;;;;;;17.10;12.82;;;;;;;;;;1497465;39;20041;-58
2021/06/18 00:59:41;;;;;;;15.43;12.20;;;;;;;;;;1497590;39;20031;-57
2021/06/18 01:00:43;;;;;;;15.23;12.75;;;;;;;;;;1497402;39;20032;-57
2021/06/18 01:01:45;;;;;;;17.23;13.63;;;;;;;;;;1497285;39;20297;-56
2021/06/18 01:02:47;;;;;;;15.35;12.75;;;;;;;;;;1497550;39;20039;-57
2021/06/18 01:03:48;;;;;;;16.20;13.15;;;;;;;;;;1497298;39;20409;-57
2021/06/18 01:04:50;;;;;;;16.02;12.90;;;;;;;;;;1497588;39;20035;-57
2021/06/18 01:05:51;;;;;;;16.30;13.40;;;;;;;;;;1497537;39;20030;-57
2021/06/18 01:06:58;;;;;;;16.98;13.00;;;;;;;;;;1497510;39;20031;-58
2021/06/18 01:08:07;;;;;;;15.00;12.10;;;;;;;;;;1497393;39;20046;-58
2021/06/18 01:09:12;;;;;;;14.73;12.05;;;;;;;;;;1497410;39;20035;-57
2021/06/18 01:10:18;;;;;;;14.20;12.65;;;;;;;;;;1497245;39;20061;-57
2021/06/18 01:11:29;;;;;;;14.13;12.52;;;;;;;;;;1497366;39;20019;-58
2021/06/18 01:12:39;;;;;;;14.63;13.13;;;;;;;;;;1497291;39;20027;-57
2021/06/18 01:13:58;;;;;;;16.95;12.55;;;;;;;;;;1497551;39;20038;-58
2021/06/18 01:15:07;;;;;;;17.77;13.25;;;;;;;;;;1497489;39;20038;-57
2021/06/18 01:16:13;;;;;;;15.00;13.43;;;;;;;;;;1497275;39;20307;-57
2021/06/18 01:17:20;;;;;;;14.32;12.43;;;;;;;;;;1497469;39;20034;-57
2021/06/18 01:18:27;;;;;;;15.00;12.73;;;;;;;;;;1497447;39;20120;-58
2021/06/18 01:19:41;;;;;;;16.13;12.82;;;;;;;;;;1497574;39;20027;-57
2021/06/18 01:20:56;;;;;;;17.05;13.40;;;;;;;;;;1497455;39;20382;-57
2021/06/18 01:21:59;;;;;;;15.43;12.93;;;;;;;;;;1497376;39;20031;-57
2021/06/18 01:23:03;;;;;;;15.63;12.68;;;;;;;;;;1497600;39;20024;-58
2021/06/18 01:24:20;;;;;;;15.65;12.43;;;;;;;;;;1497283;39;20306;-58
2021/06/18 01:25:26;;;;;;;15.23;12.75;;;;;;;;;;1497347;39;20406;-57
2021/06/18 01:26:53;;;;;;;14.63;12.77;;;;;;;;;;1497338;39;20035;-55
2021/06/18 01:28:00;;;;;;;16.00;13.10;;;;;;;;;;1497531;39;20037;-57
2021/06/18 01:29:03;;;;;;;15.80;12.70;;;;;;;;;;1497546;39;20024;-57
2021/06/18 01:30:07;;;;;;;16.75;12.88;;;;;;;;;;1497427;39;20035;-57
2021/06/18 01:31:11;;;;;;;16.38;12.02;;;;;;;;;;1497224;39;20140;-57
2021/06/18 01:32:19;;;;;;;18.38;12.73;;;;;;;;;;1497487;39;20031;-57
2021/06/18 01:33:22;;;;;;;16.55;12.57;;;;;;;;;;1497508;39;20027;-57
2021/06/18 01:34:28;;;;;;;16.83;12.90;;;;;;;;;;1497472;39;20064;-57
2021/06/18 01:35:32;;;;;;;16.25;13.55;;;;;;;;;;1497222;39;20035;-57
2021/06/18 01:36:35;;;;;;;15.63;12.23;;;;;;;;;;1497431;39;20038;-58
2021/06/18 01:37:37;;;;;;;14.77;12.50;;;;;;;;;;1497184;39;20024;-57
2021/06/18 01:38:40;;;;;;;13.75;11.75;;;;;;;;;;1497113;39;20136;-57
2021/06/18 01:39:43;;;;;;;14.90;12.55;;;;;;;;;;1497302;39;20295;-57
2021/06/18 01:40:46;;;;;;;14.02;12.10;;;;;;;;;;1497402;39;20027;-57
2021/06/18 01:41:50;;;;;;;15.77;11.93;;;;;;;;;;1497278;39;20302;-57
2021/06/18 01:42:52;;;;;;;15.15;12.50;;;;;;;;;;1497352;39;20031;-58
2021/06/18 01:43:54;;;;;;;13.82;12.40;;;;;;;;;;1497372;39;20030;-57
2021/06/18 01:44:58;;;;;;;19.60;13.13;;;;;;;;;;1497272;39;20394;-57
2021/06/18 01:46:00;;;;;;;14.63;13.10;;;;;;;;;;1497403;39;20034;-57
2021/06/18 01:47:04;;;;;;;16.00;12.13;;;;;;;;;;1497299;39;20100;-58
2021/06/18 01:48:06;;;;;;;16.90;12.70;;;;;;;;;;1497209;39;20023;-57
2021/06/18 01:49:11;;;;;;;14.38;12.32;;;;;;;;;;1497418;39;20027;-57
2021/06/18 01:50:15;;;;;;;14.82;13.07;;;;;;;;;;1497138;39;20050;-57
2021/06/18 01:51:18;;;;;;;15.23;12.25;;;;;;;;;;1497398;39;20035;-57
2021/06/18 01:52:22;;;;;;;14.18;12.43;;;;;;;;;;1497372;39;20027;-57
2021/06/18 01:53:25;;;;;;;14.90;12.25;;;;;;;;;;1497466;39;20074;-57
2021/06/18 01:54:28;;;;;;;15.45;12.25;;;;;;;;;;1497338;39;20029;-57
2021/06/18 01:55:31;;;;;;;15.43;12.52;;;;;;;;;;1497314;39;20035;-58
2021/06/18 01:56:35;;;;;;;14.00;12.02;;;;;;;;;;1497349;39;20039;-57
2021/06/18 01:57:38;;;;;;;13.98;12.18;;;;;;;;;;1497433;39;20028;-57
2021/06/18 01:58:41;;;;;;;17.38;12.65;;;;;;;;;;1497093;39;20306;-58
2021/06/18 01:59:45;;;;;;;16.73;13.20;;;;;;;;;;1497396;39;20283;-57
2021/06/18 02:00:49;;;;;;;16.10;12.00;;;;;;;;;;1497297;39;20032;-57
2021/06/18 02:01:52;;;;;;;15.90;12.02;;;;;;;;;;1497160;39;20471;-57
2021/06/18 02:02:54;;;;;;;18.20;12.60;;;;;;;;;;1497407;39;20054;-57
2021/06/18 02:03:56;;;;;;;15.85;12.60;;;;;;;;;;1497190;39;20379;-57
2021/06/18 02:04:59;;;;;;;13.85;12.38;;;;;;;;;;1497166;39;20023;-57
2021/06/18 02:06:04;;;;;;;15.25;12.35;;;;;;;;;;1497341;39;20040;-57
2021/06/18 02:07:06;;;;;;;13.98;12.38;;;;;;;;;;1497240;39;20027;-58
2021/06/18 02:08:10;;;;;;;13.75;11.48;;;;;;;;;;1497189;39;20375;-58
2021/06/18 02:09:14;;;;;;;15.48;12.38;;;;;;;;;;1497132;39;20052;-57
2021/06/18 02:10:24;;;;;;;17.70;12.20;;;;;;;;;;1497528;39;20043;-57
2021/06/18 02:11:28;;;;;;;15.32;12.35;;;;;;;;;;1497047;39;20191;-57
2021/06/18 02:12:30;;;;;;;16.05;12.93;;;;;;;;;;1497172;39;20027;-57
2021/06/18 02:13:33;;;;;;;14.73;11.95;;;;;;;;;;1497072;39;20092;-57
2021/06/18 02:14:36;;;;;;;14.88;12.50;;;;;;;;;;1497267;39;20023;-57
2021/06/18 02:15:39;;;;;;;13.88;12.38;;;;;;;;;;1497425;39;20035;-57
2021/06/18 02:16:45;;;;;;;16.55;13.10;;;;;;;;;;1497228;39;20039;-57
2021/06/18 02:17:46;;;;;;;18.75;12.85;;;;;;;;;;1497166;39;20032;-58
2021/06/18 02:18:49;;;;;;;14.23;11.82;;;;;;;;;;1497007;39;20035;-57
2021/06/18 02:19:50;;;;;;;14.45;12.35;;;;;;;;;;1497615;39;20147;-60
2021/06/18 02:20:54;;;;;;;13.93;12.35;;;;;;;;;;1497358;39;20059;-61
2021/06/18 02:21:58;;;;;;;13.80;12.38;;;;;;;;;;1497212;39;20023;-60
2021/06/18 02:23:00;;;;;;;17.00;12.52;;;;;;;;;;1497188;39;20031;-61
2021/06/18 02:24:03;;;;;;;13.95;12.38;;;;;;;;;;1497076;39;20115;-60
2021/06/18 02:25:06;;;;;;;14.40;12.40;;;;;;;;;;1497510;39;20031;-61
2021/06/18 02:26:08;;;;;;;16.13;12.48;;;;;;;;;;1497154;39;20023;-61
2021/06/18 02:27:13;;;;;;;13.05;11.65;;;;;;;;;;1497388;39;20031;-60
2021/06/18 02:28:14;;;;;;;13.82;12.43;;;;;;;;;;1497174;39;20015;-60
2021/06/18 02:29:16;;;;;;;15.85;12.38;;;;;;;;;;1497369;39;20043;-61
2021/06/18 02:30:18;;;;;;;14.10;12.60;;;;;;;;;;1497202;39;20027;-60
2021/06/18 02:31:21;;;;;;;14.55;12.30;;;;;;;;;;1497338;39;20023;-61
2021/06/18 02:32:27;;;;;;;13.93;12.35;;;;;;;;;;1497043;39;20330;-61
2021/06/18 02:33:28;;;;;;;14.80;11.75;;;;;;;;;;1496911;39;20038;-61
2021/06/18 02:34:30;;;;;;;14.40;12.43;;;;;;;;;;1497100;39;20298;-61
2021/06/18 02:35:31;;;;;;;13.80;12.30;;;;;;;;;;1497055;39;20306;-60
2021/06/18 02:36:33;;;;;;;15.10;12.77;;;;;;;;;;1497324;39;20027;-60
2021/06/18 02:37:34;;;;;;;16.75;13.07;;;;;;;;;;1497140;39;20391;-61
2021/06/18 02:38:36;;;;;;;13.18;11.85;;;;;;;;;;1497039;39;20399;-59
2021/06/18 02:39:38;;;;;;;15.38;12.75;;;;;;;;;;1497025;39;20406;-61
2021/06/18 02:40:41;;;;;;;13.32;11.95;;;;;;;;;;1497349;39;20031;-60
2021/06/18 02:41:42;;;;;;;16.48;13.23;;;;;;;;;;1497026;39;20038;-60
2021/06/18 02:42:44;;;;;;;16.55;13.23;;;;;;;;;;1497242;39;20027;-61
2021/06/18 02:43:45;;;;;;;14.88;12.45;;;;;;;;;;1496995;39;20401;-61
2021/06/18 02:44:47;;;;;;;14.27;12.85;;;;;;;;;;1497095;39;20391;-61
2021/06/18 02:45:48;;;;;;;15.32;13.18;;;;;;;;;;1497166;39;20035;-60
2021/06/18 02:46:56;;;;;;;14.70;12.85;;;;;;;;;;1497050;39;20028;-61
2021/06/18 02:48:02;;;;;;;17.20;13.20;;;;;;;;;;1496974;39;20031;-60
2021/06/18 02:49:08;;;;;;;13.70;12.30;;;;;;;;;;1497397;39;20044;-61
2021/06/18 02:50:13;;;;;;;14.43;11.98;;;;;;;;;;1497016;39;20039;-61
2021/06/18 02:51:21;;;;;;;16.45;12.70;;;;;;;;;;1496974;39;20387;-61
2021/06/18 02:52:30;;;;;;;14.95;12.50;;;;;;;;;;1497292;39;20028;-61
2021/06/18 02:53:40;;;;;;;13.43;12.02;;;;;;;;;;1497225;39;20031;-60
2021/06/18 02:54:46;;;;;;;14.82;12.23;;;;;;;;;;1497285;39;20031;-59
2021/06/18 02:55:52;;;;;;;16.17;12.85;;;;;;;;;;1497090;39;20035;-61
2021/06/18 02:56:57;;;;;;;16.45;13.05;;;;;;;;;;1497030;39;20299;-60
2021/06/18 02:58:03;;;;;;;16.05;13.23;;;;;;;;;;1497252;39;20031;-61
2021/06/18 02:59:09;;;;;;;15.20;12.38;;;;;;;;;;1497016;39;20383;-60
2021/06/18 03:00:13;;;;;;;18.45;12.30;;;;;;;;;;1497450;39;20024;-59
2021/06/18 03:01:15;;;;;;;14.00;12.63;;;;;;;;;;1497122;39;20036;-61
2021/06/18 03:02:20;;;;;;;16.02;13.00;;;;;;;;;;1497128;39;20124;-61
2021/06/18 03:03:28;;;;;;;16.48;12.45;;;;;;;;;;1497028;39;20031;-61
2021/06/18 03:04:33;;;;;;;14.63;12.48;;;;;;;;;;1497266;39;20031;-60
2021/06/18 03:05:33;;;;;;;14.32;12.10;;;;;;;;;;1497033;39;20027;-60
2021/06/18 03:06:40;;;;;;;16.23;12.57;;;;;;;;;;1497049;39;20387;-61
2021/06/18 03:07:49;;;;;;;16.42;12.77;;;;;;;;;;1496945;39;20024;-60
2021/06/18 03:08:57;;;;;;;14.57;13.02;;;;;;;;;;1497233;39;20038;-59
2021/06/18 03:10:00;;;;;;;15.13;12.75;;;;;;;;;;1496984;39;20031;-60
2021/06/18 03:11:03;;;;;;;15.10;12.45;;;;;;;;;;1497235;39;20104;-59
2021/06/18 03:12:06;;;;;;;14.23;12.73;;;;;;;;;;1496993;39;20074;-60
2021/06/18 03:13:11;;;;;;;16.77;12.75;;;;;;;;;;1497002;39;20391;-60
2021/06/18 03:14:16;;;;;;;14.05;12.32;;;;;;;;;;1497245;39;20028;-60
2021/06/18 03:15:20;;;;;;;13.20;10.27;;;;;;;;;;1497248;39;20039;-60
2021/06/18 03:16:22;;;;;;;15.00;11.55;;;;;;;;;;1496903;39;20029;-60
2021/06/18 03:17:25;;;;;;;13.80;11.48;;;;;;;;;;1497183;39;20032;-61
2021/06/18 03:18:30;;;;;;;13.82;11.95;;;;;;;;;;1496880;39;20095;-60
2021/06/18 03:19:37;;;;;;;14.48;11.80;;;;;;;;;;1497215;39;20043;-59
2021/06/18 03:20:38;;;;;;;12.90;11.43;;;;;;;;;;1497248;39;20038;-62
2021/06/18 03:21:40;;;;;;;13.85;12.25;;;;;;;;;;1497046;39;20040;-61
2021/06/18 03:22:42;;;;;;;12.75;11.38;;;;;;;;;;1497003;39;20028;-61
2021/06/18 03:23:47;;;;;;;14.65;11.80;;;;;;;;;;1497048;39;20401;-60
2021/06/18 03:24:51;;;;;;;17.33;11.75;;;;;;;;;;1497156;39;20027;-61
2021/06/18 03:25:54;;;;;;;13.05;11.63;;;;;;;;;;1497146;39;20031;-61
2021/06/18 03:26:57;;;;;;;15.18;11.85;;;;;;;;;;1496867;39;20147;-61
2021/06/18 03:27:59;;;;;;;15.48;11.75;;;;;;;;;;1496858;39;20035;-60
2021/06/18 03:29:01;;;;;;;14.23;11.77;;;;;;;;;;1497113;39;20142;-60
2021/06/18 03:30:06;;;;;;;15.23;11.98;;;;;;;;;;1496936;39;20127;-61
2021/06/18 03:31:09;;;;;;;13.65;11.68;;;;;;;;;;1496837;39;20394;-60
2021/06/18 03:32:12;;;;;;;13.95;11.57;;;;;;;;;;1496943;39;20409;-61
2021/06/18 03:33:14;;;;;;;17.60;12.35;;;;;;;;;;1496927;39;20391;-61
2021/06/18 03:34:17;;;;;;;15.82;11.85;;;;;;;;;;1496924;39;20319;-60
2021/06/18 03:35:19;;;;;;;14.75;12.73;;;;;;;;;;1496887;39;20403;-60
2021/06/18 03:36:24;;;;;;;14.52;13.02;;;;;;;;;;1497095;39;20034;-61
2021/06/18 03:37:26;;;;;;;14.82;12.93;;;;;;;;;;1496867;39;20038;-61
2021/06/18 03:38:29;;;;;;;15.82;13.10;;;;;;;;;;1496868;39;20037;-60
2021/06/18 03:39:30;;;;;;;15.68;13.30;;;;;;;;;;1496910;39;20272;-60
2021/06/18 03:40:34;;;;;;;16.33;12.50;;;;;;;;;;1497026;39;20031;-61
2021/06/18 03:41:35;;;;;;;14.43;12.75;;;;;;;;;;1496832;39;20028;-61
2021/06/18 03:42:38;;;;;;;16.02;12.98;;;;;;;;;;1496934;39;20071;-59
2021/06/18 03:43:39;;;;;;;16.30;13.27;;;;;;;;;;1497054;39;20024;-61
2021/06/18 03:44:42;;;;;;;15.18;12.68;;;;;;;;;;1497069;39;20115;-59
2021/06/18 03:45:46;;;;;;;14.55;12.70;;;;;;;;;;1497401;39;20309;-59
2021/06/18 03:46:49;;;;;;;14.30;12.50;;;;;;;;;;1497642;39;20058;-59
2021/06/18 03:47:51;;;;;;;13.55;11.82;;;;;;;;;;1497703;39;20045;-59
2021/06/18 03:48:56;;;;;;;14.35;12.65;;;;;;;;;;1497496;39;20272;-60
2021/06/18 03:49:59;;;;;;;15.77;12.10;;;;;;;;;;1497701;39;20084;-61
2021/06/18 03:51:01;;;;;;;14.55;12.07;;;;;;;;;;1497463;39;20031;-59
2021/06/18 03:52:03;;;;;;;13.80;12.32;;;;;;;;;;1497501;39;20027;-61
2021/06/18 03:53:05;;;;;;;13.20;11.80;;;;;;;;;;1497667;39;20031;-59
2021/06/18 03:54:06;;;;;;;15.43;13.00;;;;;;;;;;1497731;39;20032;-59
2021/06/18 03:55:10;;;;;;;13.48;12.07;;;;;;;;;;1497660;39;20023;-61
2021/06/18 03:56:11;;;;;;;13.02;11.35;;;;;;;;;;1497541;39;20053;-61
2021/06/18 03:57:15;;;;;;;13.52;12.05;;;;;;;;;;1497700;39;20031;-61
2021/06/18 03:58:19;;;;;;;13.40;11.98;;;;;;;;;;1497481;39;20059;-60
2021/06/18 03:59:22;;;;;;;15.25;12.18;;;;;;;;;;1497682;39;20068;-59
2021/06/18 04:00:23;;;;;;;14.57;11.73;;;;;;;;;;1497609;39;20031;-61
2021/06/18 04:01:26;;;;;;;14.38;12.20;;;;;;;;;;1497375;39;20327;-61
2021/06/18 04:02:28;;;;;;;14.65;11.90;;;;;;;;;;1497438;39;20065;-61
2021/06/18 04:03:30;;;;;;;14.30;11.77;;;;;;;;;;1497699;39;20063;-60
2021/06/18 04:04:32;;;;;;;15.88;11.80;;;;;;;;;;1497653;39;20034;-61
2021/06/18 04:05:37;;;;;;;14.23;11.48;;;;;;;;;;1497658;39;20031;-61
2021/06/18 04:06:39;;;;;;;12.60;11.35;;;;;;;;;;1497684;39;20031;-60
2021/06/18 04:07:45;;;;;;;14.32;11.35;;;;;;;;;;1497711;39;20028;-61
2021/06/18 04:08:46;;;;;;;13.95;11.77;;;;;;;;;;1497460;39;20081;-60
2021/06/18 04:09:49;;;;;;;13.13;11.43;;;;;;;;;;1497557;39;20294;-60
2021/06/18 04:10:51;;;;;;;13.38;11.88;;;;;;;;;;1497618;39;20027;-59
2021/06/18 04:11:53;;;;;;;14.57;11.52;;;;;;;;;;1497541;39;20027;-61
2021/06/18 04:12:54;;;;;;;16.17;11.20;;;;;;;;;;1497684;39;20031;-61
2021/06/18 04:13:57;;;;;;;14.82;11.63;;;;;;;;;;1497609;39;20032;-60
2021/06/18 04:14:59;;;;;;;14.77;11.90;;;;;;;;;;1497368;39;20039;-59
2021/06/18 04:16:01;;;;;;;13.02;11.70;;;;;;;;;;1497517;39;20035;-60
2021/06/18 04:17:04;;;;;;;14.98;11.95;;;;;;;;;;1497394;39;20383;-61
2021/06/18 04:18:06;;;;;;;15.15;11.90;;;;;;;;;;1497386;39;20068;-59
2021/06/18 04:19:08;;;;;;;13.82;11.90;;;;;;;;;;1497437;39;20379;-60
2021/06/18 04:20:11;;;;;;;14.23;12.07;;;;;;;;;;1497473;39;20054;-60
2021/06/18 04:21:17;;;;;;;13.23;11.30;;;;;;;;;;1497578;39;20030;-60
2021/06/18 04:22:29;;;;;;;12.98;11.63;;;;;;;;;;1497619;39;20170;-59
2021/06/18 04:23:30;;;;;;;11.88;10.68;;;;;;;;;;1497458;39;20027;-60
2021/06/18 04:24:32;;;;;;;13.98;11.30;;;;;;;;;;1497532;39;20063;-60
2021/06/18 04:25:32;;;;;;;13.63;12.20;;;;;;;;;;1497741;39;20032;-61
2021/06/18 04:26:34;;;;;;;13.45;12.05;;;;;;;;;;1497615;39;20101;-60
2021/06/18 04:27:35;;;;;;;13.63;12.18;;;;;;;;;;1497605;39;20034;-60
2021/06/18 04:28:38;;;;;;;14.73;11.77;;;;;;;;;;1497459;39;20383;-59
2021/06/18 04:29:39;;;;;;;12.38;11.02;;;;;;;;;;1497558;39;20034;-61
2021/06/18 04:30:41;;;;;;;13.07;11.68;;;;;;;;;;1497498;39;20031;-61
2021/06/18 04:31:44;;;;;;;13.00;11.40;;;;;;;;;;1497645;39;20032;-59
2021/06/18 04:32:46;;;;;;;12.95;11.50;;;;;;;;;;1497716;39;20080;-59
2021/06/18 04:33:47;;;;;;;13.07;11.70;;;;;;;;;;1497358;39;20031;-61
2021/06/18 04:34:49;;;;;;;13.30;11.90;;;;;;;;;;1497528;39;20027;-60
2021/06/18 04:35:50;;;;;;;13.45;12.13;;;;;;;;;;1497421;39;20031;-60
2021/06/18 04:36:53;;;;;;;14.30;11.98;;;;;;;;;;1497633;39;20028;-59
2021/06/18 04:37:54;;;;;;;12.25;10.98;;;;;;;;;;1497337;39;20031;-59
2021/06/18 04:38:58;;;;;;;13.13;11.52;;;;;;;;;;1497556;39;20023;-59
2021/06/18 04:39:59;;;;;;;13.45;11.88;;;;;;;;;;1497348;39;20027;-59
2021/06/18 04:41:01;;;;;;;14.10;11.43;;;;;;;;;;1497592;39;20027;-59
2021/06/18 04:42:03;;;;;;;15.73;11.88;;;;;;;;;;1497624;39;20023;-59
2021/06/18 04:43:05;;;;;;;14.38;11.90;;;;;;;;;;1497582;39;20031;-59
2021/06/18 04:44:06;;;;;;;14.82;11.65;;;;;;;;;;1497494;39;20035;-60
2021/06/18 04:45:10;;;;;;;13.13;11.63;;;;;;;;;;1497596;39;20038;-60
2021/06/18 04:46:11;;;;;;;12.77;11.25;;;;;;;;;;1497618;39;20039;-59
2021/06/18 04:47:13;;;;;;;13.35;11.18;;;;;;;;;;1497388;39;20032;-59
2021/06/18 04:48:14;;;;;;;13.05;11.10;;;;;;;;;;1497392;39;20053;-60
2021/06/18 04:49:16;;;;;;;15.40;11.60;;;;;;;;;;1497571;39;20108;-59
2021/06/18 04:50:16;;;;;;;12.88;11.57;;;;;;;;;;1497573;39;20039;-59
2021/06/18 04:51:19;;;;;;;13.55;11.48;;;;;;;;;;1497702;39;20058;-60
2021/06/18 04:52:22;;;;;;;13.35;11.52;;;;;;;;;;1497316;39;20377;-60
2021/06/18 04:53:24;;;;;;;14.60;11.70;;;;;;;;;;1497618;39;20038;-59
2021/06/18 04:54:25;;;;;;;14.27;12.02;;;;;;;;;;1497300;39;20115;-59
2021/06/18 04:55:27;;;;;;;15.70;12.85;;;;;;;;;;1497411;39;20035;-60
2021/06/18 04:56:28;;;;;;;15.57;12.32;;;;;;;;;;1497137;39;20298;-60
2021/06/18 04:57:30;;;;;;;12.77;11.27;;;;;;;;;;1497570;39;20031;-60
2021/06/18 04:58:31;;;;;;;14.18;12.43;;;;;;;;;;1497450;39;20031;-60
2021/06/18 04:59:35;;;;;;;14.05;11.15;;;;;;;;;;1497515;39;20031;-59
2021/06/18 05:00:36;;;;;;;14.48;11.63;;;;;;;;;;1497264;39;20290;-59
2021/06/18 05:01:37;;;;;;;14.13;11.15;;;;;;;;;;1497388;39;20031;-60
2021/06/18 05:02:38;;;;;;;13.18;11.45;;;;;;;;;;1497443;39;20039;-60
2021/06/18 05:03:40;;;;;;;14.75;11.57;;;;;;;;;;1497325;39;20032;-60
2021/06/18 05:04:41;;;;;;;13.52;11.63;;;;;;;;;;1497298;39;20298;-59
2021/06/18 05:05:43;;;;;;;16.08;12.48;;;;;;;;;;1497582;39;20028;-60
2021/06/18 05:06:44;;;;;;;15.45;12.43;;;;;;;;;;1497261;39;20034;-60
2021/06/18 05:07:47;;;;;;;16.40;12.65;;;;;;;;;;1497444;39;20023;-59
2021/06/18 05:08:48;;;;;;;14.05;11.93;;;;;;;;;;1497146;39;20034;-59
2021/06/18 05:09:50;;;;;;;17.25;12.15;;;;;;;;;;1497252;39;20453;-60
2021/06/18 05:10:52;;;;;;;14.90;12.10;;;;;;;;;;1497320;39;20349;-59
2021/06/18 05:11:53;;;;;;;15.50;12.80;;;;;;;;;;1497539;39;20040;-60
2021/06/18 05:12:55;;;;;;;16.00;13.05;;;;;;;;;;1497304;39;20280;-60
2021/06/18 05:13:55;;;;;;;15.10;12.50;;;;;;;;;;1497419;39;20054;-60
2021/06/18 05:14:57;;;;;;;14.52;12.32;;;;;;;;;;1497488;39;20031;-59
2021/06/18 05:15:58;;;;;;;14.52;12.32;;;;;;;;;;1497280;39;20383;-59
2021/06/18 05:17:00;;;;;;;16.42;13.52;;;;;;;;;;1497314;39;20038;-60
2021/06/18 05:18:01;;;;;;;16.98;13.57;;;;;;;;;;1497219;39;20115;-60
2021/06/18 05:19:03;;;;;;;15.52;13.48;;;;;;;;;;1497548;39;20107;-60
2021/06/18 05:20:05;;;;;;;19.85;15.13;;;;;;;;;;1497479;39;20035;-60
2021/06/18 05:21:07;;;;;;;15.73;13.98;;;;;;;;;;1497247;39;20064;-60
2021/06/18 05:22:08;;;;;;;18.98;14.20;;;;;;;;;;1497254;39;20058;-59
2021/06/18 05:23:11;;;;;;;19.98;13.48;;;;;;;;;;1497317;39;20387;-60
2021/06/18 05:24:12;;;;;;;18.25;15.40;;;;;;;;;;1497422;39;20031;-60
2021/06/18 05:25:14;;;;;;;19.25;15.38;;;;;;;;;;1497474;39;20028;-60
2021/06/18 05:26:15;;;;;;;14.70;13.05;;;;;;;;;;1497427;39;20024;-60
2021/06/18 05:27:17;;;;;;;17.92;12.38;;;;;;;;;;1497360;39;20061;-60
2021/06/18 05:28:18;;;;;;;17.00;12.88;;;;;;;;;;1497408;39;20027;-60
2021/06/18 05:29:20;;;;;;;15.52;13.15;;;;;;;;;;1497615;39;20023;-60
2021/06/18 05:30:21;;;;;;;14.70;11.73;;;;;;;;;;1497497;39;20031;-60
2021/06/18 05:31:23;;;;;;;15.88;11.48;;;;;;;;;;1497651;39;20038;-61
2021/06/18 05:32:24;;;;;;;18.52;12.77;;;;;;;;;;1497277;39;20020;-61
2021/06/18 05:33:26;;;;;;;17.77;14.63;;;;;;;;;;1497502;39;20383;-62
2021/06/18 05:34:27;;;;;;;20.10;14.40;;;;;;;;;;1497307;39;20035;-62
2021/06/18 05:35:28;;;;;;;17.77;14.05;;;;;;;;;;1497182;39;20038;-60
2021/06/18 05:36:29;;;;;;;17.48;15.43;;;;;;;;;;1497279;39;20034;-61
2021/06/18 05:37:31;;;;;;;20.73;14.82;;;;;;;;;;1497355;39;20039;-60
2021/06/18 05:38:34;;;;;;;18.98;13.77;;;;;;;;;;1497161;39;20322;-60
2021/06/18 05:39:35;;;;;;;19.90;15.02;;;;;;;;;;1497376;39;20028;-60
2021/06/18 05:40:41;;;;;;;18.25;14.88;;;;;;;;;;1497172;39;20027;-60
2021/06/18 05:41:44;;;;;;;19.63;13.98;;;;;;;;;;1497287;39;20387;-61
2021/06/18 05:42:45;;;;;;;18.30;13.32;;;;;;;;;;1497374;39;20034;-60
2021/06/18 05:43:46;;;;;;;18.27;13.63;;;;;;;;;;1497411;39;20031;-61
2021/06/18 05:44:47;;;;;;;15.20;12.63;;;;;;;;;;1497330;39;20032;-60
2021/06/18 05:45:49;;;;;;;14.93;13.25;;;;;;;;;;1497305;39;20078;-62
2021/06/18 05:46:50;;;;;;;13.38;12.07;;;;;;;;;;1497214;39;20307;-60
2021/06/18 05:47:52;;;;;;;22.85;12.20;;;;;;;;;;1497304;39;20024;-62
2021/06/18 05:48:53;;;;;;;15.63;12.63;;;;;;;;;;1497180;39;20382;-62
2021/06/18 05:49:55;;;;;;;15.70;12.30;;;;;;;;;;1497335;39;20034;-60
2021/06/18 05:50:56;;;;;;;18.33;15.10;;;;;;;;;;1497208;39;20035;-60
2021/06/18 05:51:57;;;;;;;19.02;12.55;;;;;;;;;;1497419;39;20028;-60
2021/06/18 05:52:58;;;;;;;20.23;12.70;;;;;;;;;;1497133;39;20027;-61
2021/06/18 05:54:01;;;;;;;15.95;12.73;;;;;;;;;;1497465;39;20031;-62
2021/06/18 05:55:03;;;;;;;19.05;12.27;;;;;;;;;;1497368;39;20107;-62
2021/06/18 05:56:05;;;;;;;15.05;12.15;;;;;;;;;;1497473;39;20040;-62
2021/06/18 05:57:06;;;;;;;18.58;11.88;;;;;;;;;;1497232;39;20374;-62
2021/06/18 05:58:08;;;;;;;19.45;12.20;;;;;;;;;;1497184;39;20367;-62
2021/06/18 05:59:09;;;;;;;15.20;11.70;;;;;;;;;;1497143;39;20482;-62
2021/06/18 06:00:11;;;;;;;13.40;11.32;;;;;;;;;;1497214;39;20039;-62
2021/06/18 06:01:12;;;;;;;17.55;11.48;;;;;;;;;;1497269;39;20030;-62
2021/06/18 06:02:14;;;;;;;12.48;10.93;;;;;;;;;;1497165;39;20039;-62
2021/06/18 06:03:15;;;;;;;19.25;11.70;;;;;;;;;;1497238;39;20028;-61
2021/06/18 06:04:17;;;;;;;16.50;11.43;;;;;;;;;;1497169;39;20031;-62
2021/06/18 06:05:18;;;;;;;14.93;10.65;;;;;;;;;;1497342;39;20034;-60
2021/06/18 06:06:19;;;;;;;19.08;11.95;;;;;;;;;;1497186;39;20378;-61